Time;durP1;ratioP1;P1;durP2;ratioP2;P2;SDS_P1;SDS_P2;PMS_P1;PMS_P2;Temp;Humidity;BMP_temperature;BMP_pressure;BME280_temperature;BME280_humidity;BME280_pressure;Samples;Min_cycle;Max_cycle;Signal;HPM_P1;HPM_P2
2022/07/04 00:01:48;;;;;;;9.27;7.03;;;13.10;99.90;;;;;;6312589;22;20216;-95
2022/07/04 00:04:20;;;;;;;9.37;6.27;;;13.20;99.90;;;;;;6315282;22;20174;-95
2022/07/04 00:06:53;;;;;;;9.33;6.63;;;13.30;99.90;;;;;;6315296;22;20248;-95
2022/07/04 00:09:28;;;;;;;7.40;6.13;;;13.30;99.90;;;;;;6316364;22;20208;-95
2022/07/04 00:11:59;;;;;;;8.10;6.50;;;13.30;99.90;;;;;;6312639;22;20231;-96
2022/07/04 00:14:33;;;;;;;8.43;6.37;;;13.30;99.90;;;;;;6313045;22;20679;-96
2022/07/04 00:17:09;;;;;;;9.67;6.30;;;13.30;99.90;;;;;;6316396;22;20207;-95
2022/07/04 00:19:40;;;;;;;9.67;6.47;;;13.40;99.90;;;;;;6315147;22;20252;-96
2022/07/04 00:22:18;;;;;;;9.07;6.43;;;13.40;99.90;;;;;;6314162;22;20583;-96
2022/07/04 00:24:51;;;;;;;9.30;6.63;;;13.30;99.90;;;;;;6318036;22;20212;-96
2022/07/04 00:27:23;;;;;;;9.27;6.17;;;13.40;99.90;;;;;;6317026;22;20202;-96
2022/07/04 00:29:55;;;;;;;6.57;5.80;;;13.50;99.90;;;;;;6316774;22;20182;-96
2022/07/04 00:32:29;;;;;;;7.50;5.47;;;13.60;99.90;;;;;;6323484;22;20170;-96
2022/07/04 00:35:01;;;;;;;10.10;6.50;;;13.60;99.90;;;;;;6333651;22;20172;-94
2022/07/04 00:37:33;;;;;;;8.47;6.40;;;13.60;99.90;;;;;;6333876;22;20174;-95
2022/07/04 00:40:13;;;;;;;9.60;5.90;;;13.70;99.90;;;;;;6332514;22;20182;-96
2022/07/04 00:42:45;;;;;;;7.10;5.80;;;13.70;99.90;;;;;;6329143;22;20189;-94
2022/07/04 00:45:16;;;;;;;8.27;5.90;;;13.70;99.90;;;;;;6328531;22;20185;-96
2022/07/04 00:47:51;;;;;;;7.17;5.77;;;13.60;99.90;;;;;;6323443;22;20197;-95
2022/07/04 00:50:24;;;;;;;11.03;6.73;;;13.60;99.90;;;;;;6311449;22;20174;-95
2022/07/04 00:52:58;;;;;;;6.63;5.80;;;13.70;99.90;;;;;;6312428;22;20201;-95
2022/07/04 00:55:32;;;;;;;7.37;6.50;;;13.70;99.90;;;;;;6313288;22;20221;-95
2022/07/04 00:58:04;;;;;;;9.10;7.63;;;13.70;99.90;;;;;;6311714;22;20860;-94
2022/07/04 01:00:35;;;;;;;6.43;5.63;;;13.70;99.90;;;;;;6312245;22;20179;-94
2022/07/04 01:03:06;;;;;;;7.63;6.30;;;13.60;99.90;;;;;;6312506;22;20204;-95
2022/07/04 01:05:38;;;;;;;7.77;6.00;;;13.50;99.90;;;;;;6312965;22;20174;-94
2022/07/04 01:08:10;;;;;;;7.60;5.67;;;13.40;99.90;;;;;;6311370;22;20195;-93
2022/07/04 01:10:44;;;;;;;8.63;6.03;;;13.40;99.90;;;;;;6310605;22;20188;-95
2022/07/04 01:13:25;;;;;;;9.40;5.50;;;13.50;99.90;;;;;;6312718;22;20240;-94
2022/07/04 01:15:57;;;;;;;7.43;5.60;;;13.50;99.90;;;;;;6311499;22;20617;-95
2022/07/04 01:18:30;;;;;;;6.13;5.53;;;13.40;99.90;;;;;;6315168;22;20170;-95
2022/07/04 01:21:03;;;;;;;8.47;6.33;;;13.40;99.90;;;;;;6313132;22;20182;-95
2022/07/04 01:23:38;;;;;;;9.83;6.07;;;13.40;99.90;;;;;;6313387;22;20232;-93
2022/07/04 01:26:10;;;;;;;7.30;5.17;;;13.50;99.90;;;;;;6311222;22;20197;-95
2022/07/04 01:28:42;;;;;;;6.57;5.17;;;13.50;99.90;;;;;;6313564;22;20273;-95
2022/07/04 01:31:15;;;;;;;8.07;4.97;;;13.50;99.90;;;;;;6312112;22;20193;-95
2022/07/04 01:33:47;;;;;;;5.57;4.87;;;13.50;99.90;;;;;;6317655;22;20253;-96
2022/07/04 01:36:22;;;;;;;5.20;4.30;;;13.50;99.90;;;;;;6315871;22;20178;-95
2022/07/04 01:38:54;;;;;;;5.27;4.70;;;13.50;99.90;;;;;;6314409;22;20180;-95
2022/07/04 01:41:26;;;;;;;5.20;4.70;;;13.50;99.90;;;;;;6317049;22;20185;-95
2022/07/04 01:43:57;;;;;;;6.83;4.80;;;13.50;99.90;;;;;;6312985;22;20220;-94
2022/07/04 01:46:30;;;;;;;6.63;4.40;;;13.50;99.90;;;;;;6318187;22;20185;-95
2022/07/04 01:49:01;;;;;;;7.10;4.73;;;13.50;99.90;;;;;;6313187;22;20198;-95
2022/07/04 01:51:39;;;;;;;5.03;4.37;;;13.40;99.90;;;;;;6312581;22;20224;-95
2022/07/04 01:54:10;;;;;;;4.57;4.10;;;13.40;99.90;;;;;;6313247;22;20174;-96
2022/07/04 01:56:42;;;;;;;6.00;4.57;;;13.50;99.90;;;;;;6313203;22;20178;-96
2022/07/04 01:59:13;;;;;;;5.17;4.27;;;13.50;99.90;;;;;;6311800;22;20252;-96
2022/07/04 02:01:44;;;;;;;5.43;4.13;;;13.50;99.90;;;;;;6312245;22;20169;-95
2022/07/04 02:04:14;;;;;;;5.10;4.50;;;13.50;99.90;;;;;;6313583;22;20253;-96
2022/07/04 02:06:51;;;;;;;5.60;4.40;;;13.50;99.90;;;;;;6315942;22;20234;-95
2022/07/04 02:15:09;;;;;;;6.10;4.17;;;13.50;99.90;;;;;;6226541;23;20176;-95
2022/07/04 02:17:43;;;;;;;6.63;4.60;;;13.50;99.90;;;;;;6231100;23;20229;-95
2022/07/04 02:20:25;;;;;;;5.63;4.60;;;13.50;99.90;;;;;;6224491;23;20202;-93
2022/07/04 02:22:59;;;;;;;4.87;4.00;;;13.50;99.90;;;;;;6229515;23;20221;-95
2022/07/04 02:25:30;;;;;;;3.87;3.50;;;13.50;99.90;;;;;;6225332;23;20503;-95
2022/07/04 02:28:05;;;;;;;5.40;4.90;;;13.50;99.90;;;;;;6221256;23;20712;-94
2022/07/04 02:30:36;;;;;;;5.20;4.20;;;13.60;99.90;;;;;;6223919;23;20175;-94
2022/07/04 02:33:07;;;;;;;4.97;4.47;;;13.60;99.90;;;;;;6222904;23;20176;-94
2022/07/04 02:35:38;;;;;;;4.47;3.93;;;13.60;99.90;;;;;;6223607;23;20172;-96
2022/07/04 02:38:12;;;;;;;4.10;3.53;;;13.60;99.90;;;;;;6223125;23;20211;-95
2022/07/04 02:40:44;;;;;;;5.10;3.90;;;13.60;99.90;;;;;;6220637;23;20161;-95
2022/07/04 02:43:16;;;;;;;5.57;4.17;;;13.60;99.90;;;;;;6222448;23;20231;-95
2022/07/04 02:45:48;;;;;;;5.77;3.97;;;13.50;99.90;;;;;;6224285;23;20234;-94
2022/07/04 02:48:20;;;;;;;4.60;4.20;;;13.60;99.90;;;;;;6221367;23;20220;-94
2022/07/04 02:50:51;;;;;;;6.77;4.40;;;13.60;99.90;;;;;;6220252;23;20176;-96
2022/07/04 02:53:25;;;;;;;5.10;4.23;;;13.60;99.90;;;;;;6221328;23;20177;-94
2022/07/04 02:55:57;;;;;;;4.67;4.10;;;13.60;99.90;;;;;;6221203;23;20186;-95
2022/07/04 02:58:28;;;;;;;5.43;3.50;;;13.60;99.90;;;;;;6220611;23;20176;-95
2022/07/04 03:01:03;;;;;;;5.63;3.90;;;13.60;99.90;;;;;;6220632;23;20188;-95
2022/07/04 03:03:35;;;;;;;5.43;3.83;;;13.60;99.90;;;;;;6221921;23;20196;-95
2022/07/04 03:06:06;;;;;;;4.63;4.23;;;13.60;99.90;;;;;;6222116;23;20230;-94
2022/07/04 03:08:42;;;;;;;4.50;4.10;;;13.60;99.90;;;;;;6222051;23;20203;-94
2022/07/04 03:11:15;;;;;;;4.20;3.67;;;13.60;99.90;;;;;;6222027;23;20655;-94
2022/07/04 03:13:47;;;;;;;5.33;4.17;;;13.60;99.90;;;;;;6225021;23;20172;-94
2022/07/04 03:16:19;;;;;;;5.87;4.03;;;13.60;99.90;;;;;;6222564;23;20172;-93
2022/07/04 03:18:51;;;;;;;4.80;4.20;;;13.70;99.90;;;;;;6224305;23;20200;-95
2022/07/04 03:21:23;;;;;;;7.50;5.00;;;13.60;99.90;;;;;;6222499;23;20177;-94
2022/07/04 03:24:00;;;;;;;5.80;5.20;;;13.50;99.90;;;;;;6222924;23;20195;-94
2022/07/04 03:26:34;;;;;;;5.27;4.40;;;13.50;99.90;;;;;;6222065;23;20176;-93
2022/07/04 03:29:05;;;;;;;5.20;4.70;;;13.40;99.90;;;;;;6221064;23;20208;-92
2022/07/04 03:31:38;;;;;;;6.20;4.60;;;13.40;99.90;;;;;;6220660;23;20203;-93
2022/07/04 03:34:09;;;;;;;6.80;4.90;;;13.40;99.90;;;;;;6223263;23;20176;-93
2022/07/04 03:36:42;;;;;;;6.13;4.70;;;13.40;99.90;;;;;;6223239;23;20238;-93
2022/07/04 03:39:16;;;;;;;6.83;5.10;;;13.50;99.90;;;;;;6266418;22;20210;-96
2022/07/04 03:41:47;;;;;;;6.57;4.70;;;13.50;99.90;;;;;;6314718;22;20185;-94
2022/07/04 03:44:21;;;;;;;4.40;4.00;;;13.50;99.90;;;;;;6315468;22;20171;-94
2022/07/04 03:46:53;;;;;;;9.50;5.20;;;13.50;99.90;;;;;;6314346;22;20196;-96
2022/07/04 03:49:24;;;;;;;6.30;5.00;;;13.50;99.90;;;;;;6314158;22;20220;-95
2022/07/04 03:51:56;;;;;;;9.70;5.40;;;13.50;99.90;;;;;;6315041;22;20181;-95
2022/07/04 03:54:29;;;;;;;6.30;5.70;;;13.60;99.90;;;;;;6315209;22;20542;-94
2022/07/04 03:57:03;;;;;;;5.50;4.87;;;13.60;99.90;;;;;;6318729;22;20174;-95
2022/07/04 03:59:37;;;;;;;6.07;4.77;;;13.60;99.90;;;;;;6319867;22;20224;-94
2022/07/04 04:02:10;;;;;;;6.20;4.83;;;13.50;99.90;;;;;;6318945;22;20170;-94
2022/07/04 04:07:37;;;;;;;6.53;5.30;;;13.50;99.90;;;;;;6294437;22;20228;-93
2022/07/04 04:10:21;;;;;;;4.90;4.37;;;13.60;99.90;;;;;;6313814;22;20220;-94
2022/07/04 04:12:52;;;;;;;6.50;5.60;;;13.60;99.90;;;;;;6314248;22;20174;-95
2022/07/04 04:15:23;;;;;;;7.67;5.30;;;13.50;99.90;;;;;;6312357;22;20182;-94
2022/07/04 04:17:55;;;;;;;7.20;5.10;;;13.50;99.90;;;;;;6330214;22;20532;-94
2022/07/04 04:20:28;;;;;;;6.37;4.40;;;13.50;99.90;;;;;;6331980;22;20162;-95
2022/07/04 04:23:00;;;;;;;5.13;4.60;;;13.50;99.90;;;;;;6328196;22;20593;-94
2022/07/04 04:25:35;;;;;;;6.57;4.73;;;13.50;99.90;;;;;;6325507;22;20257;-94
2022/07/04 04:28:06;;;;;;;5.47;4.97;;;13.60;99.90;;;;;;6325798;22;20186;-93
2022/07/04 04:30:39;;;;;;;9.07;4.87;;;13.50;99.90;;;;;;6325929;22;20202;-94
2022/07/04 04:33:16;;;;;;;5.63;5.07;;;13.50;99.90;;;;;;6323429;22;20178;-93
2022/07/04 04:36:07;;;;;;;5.23;4.70;;;13.60;99.90;;;;;;6324423;22;20178;-95
2022/07/04 04:38:39;;;;;;;5.07;4.30;;;13.60;99.90;;;;;;6324713;22;20270;-94
2022/07/04 04:41:25;;;;;;;6.10;4.87;;;13.60;99.90;;;;;;6324157;22;20174;-94
2022/07/04 04:43:56;;;;;;;6.53;4.70;;;13.60;99.90;;;;;;6325324;22;20204;-95
2022/07/04 04:46:29;;;;;;;6.47;5.00;;;13.60;99.90;;;;;;6322049;22;20200;-94
2022/07/04 04:49:02;;;;;;;5.70;4.90;;;13.60;99.90;;;;;;6321648;22;20162;-95
2022/07/04 04:51:33;;;;;;;7.63;5.03;;;13.60;99.90;;;;;;6322357;22;20158;-95
2022/07/04 04:54:05;;;;;;;5.03;4.53;;;13.60;99.90;;;;;;6320681;22;20268;-95
2022/07/04 04:56:40;;;;;;;6.33;5.10;;;13.60;99.90;;;;;;6322740;22;20617;-95
2022/07/04 04:59:12;;;;;;;6.13;4.70;;;13.60;99.90;;;;;;6329979;22;20204;-93
2022/07/04 05:01:44;;;;;;;5.33;4.53;;;13.60;99.90;;;;;;6325791;22;20174;-93
2022/07/04 05:04:16;;;;;;;5.30;4.70;;;13.60;99.90;;;;;;6323073;22;20174;-95
2022/07/04 05:06:56;;;;;;;5.70;4.93;;;13.60;99.90;;;;;;6322964;22;20249;-93
2022/07/04 05:09:28;;;;;;;7.57;4.93;;;13.60;99.90;;;;;;6325368;22;20641;-95
2022/07/04 05:12:12;;;;;;;5.77;4.57;;;13.60;99.90;;;;;;6321070;22;20200;-94
2022/07/04 05:14:44;;;;;;;5.50;5.00;;;13.60;99.90;;;;;;6321922;22;20204;-94
2022/07/04 05:17:15;;;;;;;8.40;5.53;;;13.60;99.90;;;;;;6323251;22;20175;-94
2022/07/04 05:19:48;;;;;;;10.00;5.70;;;13.60;99.90;;;;;;6325125;22;20180;-95
2022/07/04 05:22:20;;;;;;;6.30;5.63;;;13.60;99.90;;;;;;6324657;22;20162;-94
2022/07/04 05:24:51;;;;;;;6.87;5.23;;;13.60;99.90;;;;;;6324676;22;20184;-94
2022/07/04 05:27:25;;;;;;;6.57;4.87;;;13.60;99.90;;;;;;6321134;22;20171;-95
2022/07/04 05:33:01;;;;;;;7.10;5.47;;;13.60;99.90;;;;;;6330909;22;20180;-94
2022/07/04 05:35:32;;;;;;;8.13;5.63;;;13.50;99.90;;;;;;6329399;22;20174;-94
2022/07/04 05:38:03;;;;;;;5.40;4.90;;;13.50;99.90;;;;;;6319396;22;20170;-95
2022/07/04 05:40:34;;;;;;;6.87;5.30;;;13.50;99.90;;;;;;6315800;22;20174;-94
2022/07/04 05:43:08;;;;;;;5.73;5.13;;;13.50;99.90;;;;;;6316980;22;20174;-94
2022/07/04 05:45:40;;;;;;;5.90;4.83;;;13.50;99.90;;;;;;6318498;22;20162;-94
2022/07/04 05:48:14;;;;;;;7.60;5.77;;;13.60;99.90;;;;;;6317786;22;20213;-95
2022/07/04 05:53:48;;;;;;;7.70;4.77;;;13.60;99.90;;;;;;6319507;22;20607;-96
2022/07/04 05:56:19;;;;;;;8.97;5.33;;;13.60;99.90;;;;;;6323468;22;20174;-96
2022/07/04 05:58:52;;;;;;;6.50;5.07;;;13.60;99.90;;;;;;6320504;22;20167;-95
2022/07/04 06:01:24;;;;;;;5.77;4.57;;;13.50;99.90;;;;;;6324718;22;20162;-96
2022/07/04 06:03:56;;;;;;;7.90;5.23;;;13.40;99.90;;;;;;6334957;22;20202;-96
2022/07/04 06:06:28;;;;;;;7.97;5.70;;;13.40;99.90;;;;;;6334828;22;20235;-96
2022/07/04 06:08:59;;;;;;;7.17;4.50;;;13.40;99.90;;;;;;6327565;22;20216;-95
2022/07/04 06:11:32;;;;;;;7.97;5.57;;;13.40;99.90;;;;;;6323039;22;20216;-95
2022/07/04 06:14:25;;;;;;;6.30;5.20;;;13.40;99.90;;;;;;6322641;22;20200;-95
2022/07/04 06:16:57;;;;;;;6.67;5.07;;;13.50;99.90;;;;;;6324670;22;20636;-95
2022/07/04 06:25:22;;;;;;;6.57;5.30;;;13.50;99.90;;;;;;6297982;22;20175;-94
2022/07/04 06:28:18;;;;;;;7.70;4.73;;;13.50;99.90;;;;;;6302060;22;20170;-94
2022/07/04 06:37:33;;;;;;;7.57;5.23;;;13.40;99.90;;;;;;6298305;22;20180;-95
2022/07/04 06:46:16;;;;;;;5.53;4.70;;;13.30;99.90;;;;;;6293021;22;20206;-96
2022/07/04 06:48:49;;;;;;;5.90;5.00;;;13.30;99.90;;;;;;6332874;22;20185;-95
2022/07/04 06:55:07;;;;;;;6.60;4.80;;;13.20;99.90;;;;;;6333481;22;20218;-94
2022/07/04 07:00:48;;;;;;;6.63;5.40;;;13.00;99.90;;;;;;6333413;22;20227;-95
2022/07/04 07:06:23;;;;;;;7.70;5.80;;;13.00;99.90;;;;;;6307269;22;20205;-95
2022/07/04 07:19:00;;;;;;;9.80;5.63;;;12.80;99.90;;;;;;6280493;22;20607;-93
2022/07/04 07:21:31;;;;;;;6.77;5.97;;;12.80;99.90;;;;;;6318814;22;20202;-94
2022/07/04 07:26:40;;;;;;;6.07;5.47;;;12.70;99.90;;;;;;6309857;22;20213;-94
2022/07/04 07:29:12;;;;;;;5.80;5.07;;;12.70;99.90;;;;;;6326286;22;20596;-94
2022/07/04 07:34:45;;;;;;;6.23;5.37;;;12.60;99.90;;;;;;6318191;22;20217;-94
2022/07/04 07:37:17;;;;;;;5.93;5.37;;;12.60;99.90;;;;;;6324877;22;20220;-95
2022/07/04 07:39:49;;;;;;;6.77;5.37;;;12.60;99.90;;;;;;6311469;22;20182;-95
2022/07/04 07:42:26;;;;;;;6.93;5.77;;;12.60;99.90;;;;;;6311510;22;20667;-95
2022/07/04 07:51:46;;;;;;;5.97;5.30;;;12.50;99.90;;;;;;6310386;22;20209;-95
2022/07/04 07:54:18;;;;;;;6.53;5.57;;;12.40;99.90;;;;;;6317970;22;20181;-95
2022/07/04 07:57:09;;;;;;;7.13;5.37;;;12.40;99.90;;;;;;6311775;22;20245;-95
2022/07/04 07:59:42;;;;;;;7.60;5.63;;;12.40;99.90;;;;;;6311870;22;20182;-95
2022/07/04 08:02:14;;;;;;;9.53;5.93;;;12.30;99.90;;;;;;6310425;22;20179;-95
2022/07/04 08:04:44;;;;;;;8.60;6.63;;;12.30;99.90;;;;;;6312094;22;20197;-95
2022/07/04 08:07:17;;;;;;;7.10;6.30;;;12.20;99.90;;;;;;6311254;22;20288;-94
2022/07/04 08:09:52;;;;;;;7.70;6.57;;;12.20;99.90;;;;;;6311360;22;20174;-94
2022/07/04 08:12:24;;;;;;;10.40;6.60;;;12.10;99.90;;;;;;6310509;22;20198;-95
2022/07/04 08:21:41;;;;;;;8.30;6.97;;;12.10;99.90;;;;;;6316684;22;20213;-95
2022/07/04 08:24:35;;;;;;;8.10;6.90;;;12.10;99.90;;;;;;6312013;22;20178;-95
2022/07/04 08:27:06;;;;;;;9.13;6.40;;;12.10;99.90;;;;;;6314396;22;20242;-95
2022/07/04 08:29:37;;;;;;;9.17;6.37;;;12.10;99.90;;;;;;6315636;22;20174;-95
2022/07/04 08:32:09;;;;;;;9.10;7.00;;;12.00;99.90;;;;;;6312685;22;20201;-94
2022/07/04 08:34:42;;;;;;;10.30;6.90;;;12.00;99.90;;;;;;6316584;22;20461;-94
2022/07/04 08:37:13;;;;;;;8.93;6.57;;;12.00;99.90;;;;;;6312254;22;20185;-94
2022/07/04 08:39:52;;;;;;;9.70;6.73;;;12.00;99.90;;;;;;6314115;22;20174;-94
2022/07/04 08:42:28;;;;;;;7.80;6.53;;;12.00;99.90;;;;;;6313798;22;20177;-95
2022/07/04 08:45:00;;;;;;;7.87;5.90;;;11.90;99.90;;;;;;6315302;22;20196;-95
2022/07/04 08:47:38;;;;;;;7.80;6.03;;;11.90;99.90;;;;;;6314287;22;20185;-95
2022/07/04 08:50:13;;;;;;;8.00;6.03;;;11.80;99.90;;;;;;6313480;22;20169;-95
2022/07/04 08:52:49;;;;;;;6.83;5.97;;;11.80;99.90;;;;;;6316248;22;20251;-95
2022/07/04 08:58:29;;;;;;;9.30;6.47;;;11.70;99.90;;;;;;6313051;22;20174;-94
2022/07/04 09:01:02;;;;;;;9.87;6.37;;;11.70;99.90;;;;;;6311632;22;20205;-94
2022/07/04 09:03:34;;;;;;;8.40;6.17;;;11.70;99.90;;;;;;6317870;22;20174;-95
2022/07/04 09:06:06;;;;;;;6.57;5.87;;;11.70;99.90;;;;;;6315536;22;20177;-94
2022/07/04 09:08:38;;;;;;;9.43;6.23;;;11.70;99.90;;;;;;6318381;22;20158;-95
2022/07/04 09:11:12;;;;;;;9.80;6.47;;;11.60;99.90;;;;;;6312092;22;20267;-95
2022/07/04 09:13:43;;;;;;;11.13;7.53;;;11.60;99.90;;;;;;6313447;22;20161;-95
2022/07/04 09:16:14;;;;;;;8.47;6.10;;;11.60;99.90;;;;;;6316055;22;20190;-95
2022/07/04 09:18:47;;;;;;;10.73;6.80;;;11.60;99.90;;;;;;6316214;22;20178;-94
2022/07/04 09:21:18;;;;;;;8.83;5.80;;;11.60;99.90;;;;;;6316365;22;20252;-95
2022/07/04 09:23:49;;;;;;;8.47;6.10;;;11.60;99.90;;;;;;6316415;22;20174;-94
2022/07/04 09:26:23;;;;;;;7.37;6.10;;;11.60;99.90;;;;;;6313345;22;20194;-94
2022/07/04 09:28:57;;;;;;;8.13;5.77;;;11.60;99.90;;;;;;6313944;22;20174;-95
2022/07/04 09:31:30;;;;;;;11.10;6.50;;;11.50;99.90;;;;;;6317829;22;20198;-94
2022/07/04 09:34:03;;;;;;;8.60;6.37;;;11.50;99.90;;;;;;6313947;22;20194;-94
2022/07/04 09:36:37;;;;;;;7.07;6.30;;;11.50;99.90;;;;;;6316210;22;20171;-94
2022/07/04 09:39:18;;;;;;;7.13;6.43;;;11.50;99.90;;;;;;6315201;22;20224;-94
2022/07/04 09:42:01;;;;;;;7.80;6.77;;;11.50;99.90;;;;;;6312254;22;20243;-95
2022/07/04 09:44:48;;;;;;;10.40;7.03;;;11.50;99.90;;;;;;6312836;22;20173;-95
2022/07/04 09:47:25;;;;;;;8.53;6.53;;;11.50;99.90;;;;;;6315015;22;20174;-94
2022/07/04 09:50:03;;;;;;;10.60;6.93;;;11.40;99.90;;;;;;6311945;22;20178;-96
2022/07/04 09:52:45;;;;;;;9.13;7.87;;;11.40;99.90;;;;;;6317331;22;20194;-94
2022/07/04 09:55:24;;;;;;;10.53;6.70;;;11.40;99.90;;;;;;6312811;22;20492;-95
2022/07/04 09:58:00;;;;;;;8.40;6.30;;;11.40;99.90;;;;;;6312667;22;20682;-94
2022/07/04 10:00:35;;;;;;;8.57;6.73;;;11.50;99.90;;;;;;6312412;22;20276;-94
2022/07/04 10:03:19;;;;;;;8.43;6.20;;;11.40;99.90;;;;;;6312514;22;20174;-95
2022/07/04 10:06:12;;;;;;;8.23;6.47;;;11.40;99.90;;;;;;6312666;22;20636;-94
2022/07/04 10:09:07;;;;;;;6.77;5.93;;;11.40;99.90;;;;;;6313580;22;20200;-95
2022/07/04 10:11:39;;;;;;;7.37;6.33;;;11.40;99.90;;;;;;6312637;22;20198;-95
2022/07/04 10:14:14;;;;;;;6.97;6.10;;;11.30;99.90;;;;;;6312697;22;20235;-95
2022/07/04 10:16:45;;;;;;;8.80;6.80;;;11.30;99.90;;;;;;6313409;22;20226;-95
2022/07/04 10:19:17;;;;;;;8.87;6.63;;;11.40;99.90;;;;;;6313359;22;20197;-95
2022/07/04 10:21:49;;;;;;;7.80;6.47;;;11.30;99.90;;;;;;6311919;22;20178;-95
2022/07/04 10:24:20;;;;;;;8.33;6.60;;;11.30;99.90;;;;;;6313514;22;20182;-95
2022/07/04 10:26:52;;;;;;;7.07;6.37;;;11.40;99.90;;;;;;6314981;22;20167;-95
2022/07/04 10:29:25;;;;;;;8.73;6.33;;;11.40;99.90;;;;;;6318349;22;20174;-93
2022/07/04 10:31:57;;;;;;;9.90;5.93;;;11.30;99.90;;;;;;6315658;22;20198;-94
2022/07/04 10:34:30;;;;;;;8.10;6.43;;;11.40;99.90;;;;;;6313255;22;20178;-95
2022/07/04 10:37:02;;;;;;;6.67;6.03;;;11.40;99.90;;;;;;6314056;22;20235;-95
2022/07/04 10:39:35;;;;;;;8.00;6.40;;;11.40;99.90;;;;;;6316580;22;20171;-95
2022/07/04 10:42:07;;;;;;;7.53;6.27;;;11.40;99.90;;;;;;6312277;22;20178;-95
2022/07/04 10:44:43;;;;;;;7.30;5.57;;;11.40;99.90;;;;;;6312731;22;20174;-95
2022/07/04 10:47:27;;;;;;;7.70;5.80;;;11.40;99.90;;;;;;6312547;22;20227;-94
2022/07/04 10:49:58;;;;;;;9.73;6.30;;;11.40;99.90;;;;;;6311814;22;20484;-96
2022/07/04 10:52:30;;;;;;;8.67;5.50;;;11.60;99.90;;;;;;6312930;22;20252;-93
2022/07/04 10:55:15;;;;;;;8.13;5.53;;;11.60;99.90;;;;;;6313435;22;20609;-96
2022/07/04 10:57:46;;;;;;;9.47;6.00;;;11.70;99.90;;;;;;6312677;22;20174;-94
2022/07/04 11:00:20;;;;;;;7.97;6.43;;;11.70;99.90;;;;;;6311190;22;20299;-94
2022/07/04 11:03:04;;;;;;;9.37;6.63;;;11.70;99.90;;;;;;6313155;22;20170;-96
2022/07/04 11:05:37;;;;;;;7.60;6.20;;;11.80;99.90;;;;;;6313027;22;20182;-96
2022/07/04 11:08:08;;;;;;;9.63;6.90;;;11.80;99.90;;;;;;6312621;22;20181;-94
2022/07/04 11:10:40;;;;;;;8.97;7.47;;;11.90;99.90;;;;;;6312339;22;20508;-93
2022/07/04 11:13:22;;;;;;;8.20;6.47;;;11.90;99.90;;;;;;6312342;22;20200;-94
2022/07/04 11:16:07;;;;;;;8.30;7.03;;;11.90;99.90;;;;;;6313185;22;20232;-93
2022/07/04 11:18:46;;;;;;;8.27;6.90;;;11.90;99.90;;;;;;6313003;22;20182;-95
2022/07/04 11:21:22;;;;;;;8.03;6.67;;;11.90;99.90;;;;;;6313496;22;20182;-94
2022/07/04 11:23:54;;;;;;;9.20;6.80;;;12.00;99.90;;;;;;6312915;22;20174;-94
2022/07/04 11:26:28;;;;;;;11.03;7.13;;;12.00;99.90;;;;;;6321643;22;20167;-95
2022/07/04 11:29:03;;;;;;;8.37;7.50;;;12.00;99.90;;;;;;6333869;22;20190;-96
2022/07/04 11:31:41;;;;;;;8.83;7.53;;;12.00;99.90;;;;;;6332097;22;20166;-95
2022/07/04 11:34:14;;;;;;;12.27;7.77;;;12.00;99.90;;;;;;6327904;22;20251;-96
2022/07/04 11:36:46;;;;;;;9.13;7.50;;;12.00;99.90;;;;;;6317754;22;20174;-96
2022/07/04 11:39:19;;;;;;;9.93;6.73;;;12.10;99.90;;;;;;6317192;22;20178;-96
2022/07/04 11:47:39;;;;;;;11.17;7.87;;;12.10;99.90;;;;;;6311874;22;20170;-95
2022/07/04 11:50:13;;;;;;;10.73;7.93;;;12.10;99.90;;;;;;6310892;22;20174;-94
2022/07/04 11:52:47;;;;;;;9.53;7.47;;;12.10;99.90;;;;;;6311518;22;20236;-93
2022/07/04 11:55:40;;;;;;;10.57;7.70;;;12.10;99.90;;;;;;6313331;22;20576;-94
2022/07/04 11:58:12;;;;;;;11.87;8.67;;;12.10;99.90;;;;;;6314587;22;20554;-95
2022/07/04 12:00:43;;;;;;;11.27;8.60;;;12.10;99.90;;;;;;6314832;22;20189;-96
2022/07/04 12:03:19;;;;;;;10.50;8.07;;;12.10;99.90;;;;;;6313498;22;20174;-95
2022/07/04 12:06:02;;;;;;;10.17;8.57;;;12.00;99.90;;;;;;6312296;22;20181;-94
2022/07/04 12:08:34;;;;;;;10.90;8.83;;;12.00;99.90;;;;;;6316645;22;20166;-95
2022/07/04 12:11:05;;;;;;;11.17;8.13;;;11.90;99.90;;;;;;6316492;22;20580;-93
2022/07/04 12:13:36;;;;;;;10.60;7.43;;;11.90;99.90;;;;;;6313526;22;20255;-94
2022/07/04 12:16:15;;;;;;;10.20;8.30;;;11.90;99.90;;;;;;6311583;22;20174;-95
2022/07/04 12:18:50;;;;;;;11.77;7.30;;;11.90;99.90;;;;;;6313761;22;20182;-95
2022/07/04 12:21:22;;;;;;;9.30;7.63;;;11.80;99.90;;;;;;6311314;22;20174;-95
2022/07/04 12:23:54;;;;;;;9.27;7.80;;;11.80;99.90;;;;;;6313244;22;20231;-94
2022/07/04 12:26:50;;;;;;;9.40;8.13;;;11.80;99.90;;;;;;6313462;22;20221;-95
2022/07/04 12:29:27;;;;;;;11.67;8.30;;;11.80;99.90;;;;;;6316330;22;20223;-94
2022/07/04 12:32:01;;;;;;;11.17;8.33;;;11.70;99.90;;;;;;6313002;22;20174;-96
2022/07/04 12:34:40;;;;;;;10.67;7.70;;;11.70;99.90;;;;;;6315932;22;20205;-94
2022/07/04 12:37:12;;;;;;;8.33;7.07;;;11.70;99.90;;;;;;6316177;22;20243;-94
2022/07/04 12:39:45;;;;;;;11.90;8.20;;;11.70;99.90;;;;;;6312479;22;20175;-96
2022/07/04 12:42:19;;;;;;;10.63;8.07;;;11.70;99.90;;;;;;6312971;22;20174;-95
2022/07/04 12:44:51;;;;;;;9.73;7.37;;;11.70;99.90;;;;;;6315052;22;20221;-95
2022/07/04 12:47:23;;;;;;;10.27;8.17;;;11.70;99.90;;;;;;6312149;22;20226;-95
2022/07/04 12:50:14;;;;;;;9.17;7.50;;;11.60;99.90;;;;;;6310539;22;20253;-93
2022/07/04 12:52:46;;;;;;;12.07;8.10;;;11.70;99.90;;;;;;6311877;22;20252;-94
2022/07/04 12:55:17;;;;;;;10.03;8.17;;;11.70;99.90;;;;;;6312133;22;20170;-94
2022/07/04 12:57:49;;;;;;;11.83;7.80;;;11.70;99.90;;;;;;6311448;22;20212;-95
2022/07/04 13:00:23;;;;;;;8.60;7.57;;;11.80;99.90;;;;;;6310564;22;20235;-95
2022/07/04 13:03:10;;;;;;;9.63;8.20;;;11.80;99.90;;;;;;6312128;22;20475;-95
2022/07/04 13:05:44;;;;;;;9.80;8.10;;;11.80;99.90;;;;;;6311994;22;20182;-95
2022/07/04 13:08:16;;;;;;;10.87;8.27;;;11.80;99.90;;;;;;6312849;22;20179;-94
2022/07/04 13:10:48;;;;;;;10.97;7.93;;;11.90;99.90;;;;;;6312484;22;20231;-94
2022/07/04 13:13:19;;;;;;;10.47;8.03;;;12.00;99.90;;;;;;6312825;22;20232;-93
2022/07/04 13:15:51;;;;;;;8.93;7.87;;;12.00;99.90;;;;;;6312246;22;20246;-94
2022/07/04 13:18:23;;;;;;;9.37;7.57;;;12.10;99.90;;;;;;6313811;22;20190;-95
2022/07/04 13:21:11;;;;;;;10.67;7.83;;;12.10;99.90;;;;;;6311504;22;20208;-94
2022/07/04 13:23:42;;;;;;;10.27;7.70;;;12.20;99.90;;;;;;6316477;22;20165;-96
2022/07/04 13:26:14;;;;;;;9.63;7.43;;;12.20;99.90;;;;;;6316479;22;20177;-94
2022/07/04 13:28:46;;;;;;;9.83;7.30;;;12.30;99.90;;;;;;6315755;22;20178;-94
2022/07/04 13:31:17;;;;;;;10.23;7.10;;;12.30;99.90;;;;;;6315294;22;20174;-95
2022/07/04 13:33:49;;;;;;;7.97;7.17;;;12.40;99.90;;;;;;6315032;22;20522;-94
2022/07/04 13:36:23;;;;;;;8.43;7.33;;;12.40;99.90;;;;;;6316743;22;20182;-96
2022/07/04 13:38:55;;;;;;;12.17;8.00;;;12.40;99.90;;;;;;6317902;22;20178;-94
2022/07/04 13:41:34;;;;;;;9.50;7.67;;;12.40;99.90;;;;;;6314407;22;20475;-95
2022/07/04 13:44:08;;;;;;;8.70;7.03;;;12.40;99.90;;;;;;6316928;22;20178;-95
2022/07/04 13:46:39;;;;;;;8.17;6.90;;;12.50;99.90;;;;;;6318593;22;20189;-94
2022/07/04 13:49:12;;;;;;;9.13;6.83;;;12.60;99.90;;;;;;6313462;22;20727;-95
2022/07/04 13:51:46;;;;;;;10.47;6.37;;;12.70;99.90;;;;;;6312820;22;20245;-96
2022/07/04 13:54:18;;;;;;;10.57;6.77;;;12.70;99.90;;;;;;6314281;22;20198;-94
2022/07/04 13:56:49;;;;;;;9.43;6.80;;;12.70;99.90;;;;;;6315734;22;20312;-94
2022/07/04 13:59:20;;;;;;;9.30;6.37;;;12.70;99.90;;;;;;6314427;22;20231;-96
2022/07/04 14:01:52;;;;;;;9.53;6.63;;;12.80;99.90;;;;;;6316033;22;20175;-95
2022/07/04 14:04:24;;;;;;;8.73;7.60;;;12.80;99.90;;;;;;6315697;22;20232;-95
2022/07/04 14:06:58;;;;;;;7.30;6.30;;;13.00;99.90;;;;;;6314958;22;20174;-95
2022/07/04 14:09:29;;;;;;;8.07;6.63;;;13.00;99.90;;;;;;6313666;22;20193;-96
2022/07/04 14:12:02;;;;;;;8.77;6.83;;;12.90;99.90;;;;;;6312149;22;20609;-95
2022/07/04 14:14:34;;;;;;;9.50;7.00;;;12.90;99.90;;;;;;6312958;22;20194;-95
2022/07/04 14:17:06;;;;;;;8.57;6.67;;;13.00;99.90;;;;;;6312615;22;20171;-94
2022/07/04 14:19:58;;;;;;;8.33;7.03;;;13.00;99.90;;;;;;6312780;22;20194;-94
2022/07/04 14:22:32;;;;;;;10.80;7.07;;;13.00;99.90;;;;;;6313204;22;20276;-95
2022/07/04 14:25:04;;;;;;;9.60;7.07;;;13.00;99.90;;;;;;6313098;22;20175;-95
2022/07/04 14:27:36;;;;;;;8.50;6.80;;;13.10;99.90;;;;;;6312582;22;20182;-95
2022/07/04 14:30:12;;;;;;;7.87;7.07;;;13.20;99.90;;;;;;6311966;22;20272;-95
2022/07/04 14:32:45;;;;;;;9.37;6.63;;;13.20;99.90;;;;;;6312851;22;20219;-95
2022/07/04 14:35:18;;;;;;;9.27;7.33;;;13.20;99.90;;;;;;6317153;22;20194;-96
2022/07/04 14:37:55;;;;;;;11.63;7.23;;;13.30;99.90;;;;;;6313082;22;20186;-95
2022/07/04 14:40:26;;;;;;;8.90;7.23;;;13.30;99.90;;;;;;6314042;22;20216;-96
2022/07/04 14:42:59;;;;;;;9.97;7.50;;;13.40;99.90;;;;;;6318128;22;20185;-96